createdAt,value
2023-01-05T00:02:30.608Z,101268.28
2023-01-05T00:07:33.479Z,101273.28
2023-01-05T00:12:55.106Z,101280.25
2023-01-05T00:18:15.366Z,101270.66
2023-01-05T00:23:18.682Z,101278.50
2023-01-05T00:28:22.884Z,101272.50
2023-01-05T00:33:25.987Z,101301.25
2023-01-05T00:38:28.906Z,101308.31
2023-01-05T00:43:33.163Z,101302.25
2023-01-05T00:48:35.984Z,101315.31
2023-01-05T00:53:39.036Z,101312.75
2023-01-05T00:58:43.342Z,101305.75
2023-01-05T01:03:46.482Z,101309.25
2023-01-05T01:08:49.380Z,101322.38
2023-01-05T01:13:53.750Z,101320.66
2023-01-05T01:19:00.544Z,101332.81
2023-01-05T01:24:06.587Z,101339.66
2023-01-05T01:29:11.029Z,101330.03
2023-01-05T01:34:13.911Z,101353.50
2023-01-05T01:39:17.466Z,101362.97
2023-01-05T01:44:50.888Z,101351.59
2023-01-05T01:49:56.875Z,101362.03
2023-01-05T01:55:00.547Z,101361.19
2023-01-05T02:00:07.125Z,101360.38
2023-01-05T02:05:22.514Z,101371.72
2023-01-05T02:10:37.874Z,101376.03
2023-01-05T02:15:45.745Z,101371.66
2023-01-05T02:21:00.877Z,101386.38
2023-01-05T02:26:43.979Z,101379.41
2023-01-05T02:31:49.841Z,101381.19
2023-01-05T02:36:55.906Z,101382.88
2023-01-05T02:42:02.543Z,101392.47
2023-01-05T02:47:08.458Z,101377.69
2023-01-05T02:52:13.207Z,101382.09
2023-01-05T02:57:18.551Z,101385.56
2023-01-05T03:02:26.228Z,101378.59
2023-01-05T03:07:32.467Z,101391.63
2023-01-05T03:12:53.626Z,101386.47
2023-01-05T03:18:01.967Z,101375.25
2023-01-05T03:23:25.295Z,101380.44
2023-01-05T03:28:48.891Z,101390.06
2023-01-05T03:34:20.200Z,101379.69
2023-01-05T03:39:26.520Z,101383.97
2023-01-05T03:44:30.376Z,101395.25
2023-01-05T03:49:36.020Z,101399.59
2023-01-05T03:54:39.038Z,101403.84
2023-01-05T03:59:42.104Z,101403.00
2023-01-05T04:04:46.480Z,101406.50
2023-01-05T04:09:49.697Z,101396.97
2023-01-05T04:14:55.174Z,101405.66
2023-01-05T04:20:00.537Z,101407.41
2023-01-05T04:25:03.739Z,101424.81
2023-01-05T04:30:09.784Z,101426.50
2023-01-05T04:35:15.575Z,101442.13
2023-01-05T04:40:20.641Z,101435.16
2023-01-05T04:45:28.028Z,101428.19
2023-01-05T04:50:32.856Z,101429.06
2023-01-05T04:55:36.829Z,101439.53
2023-01-05T05:00:42.820Z,101437.81
2023-01-05T05:05:47.414Z,101442.19
2023-01-05T05:10:51.472Z,101458.72
2023-01-05T05:15:56.258Z,101455.25
2023-01-05T05:21:00.689Z,101421.47
2023-01-05T05:26:07.745Z,101462.22
2023-01-05T05:31:10.964Z,101478.72
2023-01-05T05:36:17.935Z,101481.31
2023-01-05T05:41:23.795Z,101477.84
2023-01-05T05:46:29.153Z,101487.44
2023-01-05T05:51:33.503Z,101483.94
2023-01-05T05:56:36.459Z,101482.25
2023-01-05T06:01:39.352Z,101497.06
2023-01-05T06:06:43.655Z,101499.72
2023-01-05T06:11:46.590Z,101505.84
2023-01-05T06:16:49.644Z,101500.69
2023-01-05T06:21:53.911Z,101505.91
2023-01-05T06:26:56.799Z,101510.22
2023-01-05T06:31:59.653Z,101519.78
2023-01-05T06:37:06.362Z,101516.22
2023-01-05T06:42:09.263Z,101515.41
2023-01-05T06:47:12.173Z,101524.03
2023-01-05T06:52:17.087Z,101535.38
2023-01-05T06:57:20.103Z,101541.50
2023-01-05T07:02:45.380Z,101541.53
2023-01-05T07:07:49.685Z,101544.22
2023-01-05T07:12:52.578Z,101553.78
2023-01-05T07:17:58.377Z,101558.84
2023-01-05T07:23:02.596Z,101566.59
2023-01-05T07:28:05.924Z,101572.63
2023-01-05T07:33:39.980Z,101570.03
2023-01-05T07:38:47.992Z,101586.56
2023-01-05T07:43:56.088Z,101587.41
2023-01-05T07:49:02.652Z,101593.66
2023-01-05T07:54:07.100Z,101621.47
2023-01-05T07:59:10.056Z,101625.00
2023-01-05T08:04:15.160Z,101632.81
2023-01-05T08:09:37.254Z,101641.50
2023-01-05T08:14:42.279Z,101647.56
2023-01-05T08:19:45.246Z,101645.81
2023-01-05T08:24:49.665Z,101655.34
2023-01-05T08:29:52.617Z,101663.13
2023-01-05T08:34:55.833Z,101666.63
2023-01-05T08:40:00.662Z,101678.81
2023-01-05T08:50:29.088Z,101689.22
2023-01-05T08:55:33.363Z,101690.09
2023-01-05T09:00:36.447Z,101692.66
2023-01-05T09:06:02.729Z,101703.09
2023-01-05T09:11:11.190Z,101703.06
2023-01-05T09:16:24.849Z,101693.53
2023-01-05T09:21:39.582Z,101709.16
2023-01-05T09:26:44.166Z,101706.47
2023-01-05T09:31:47.228Z,101720.38
2023-01-05T09:36:50.262Z,101732.53
2023-01-05T09:41:56.650Z,101729.06
2023-01-05T09:47:03.936Z,101735.97
2023-01-05T09:52:10.817Z,101747.25
2023-01-05T09:57:18.305Z,101752.41
2023-01-05T10:02:29.768Z,101753.25
2023-01-05T10:07:41.893Z,101778.53
2023-01-05T10:13:04.230Z,101791.56
2023-01-05T10:18:12.108Z,101788.91
2023-01-05T10:23:27.017Z,101781.97
2023-01-05T10:28:35.659Z,101788.09
2023-01-05T10:33:54.636Z,101783.66
2023-01-05T10:39:02.895Z,101785.44
2023-01-05T10:44:24.510Z,101793.22
2023-01-05T10:49:29.633Z,101792.38
2023-01-05T10:54:38.885Z,101801.88
2023-01-05T10:59:56.018Z,101798.44
2023-01-05T11:05:04.548Z,101807.09
2023-01-05T11:10:22.671Z,101807.91
2023-01-05T11:15:27.014Z,101809.50
2023-01-05T11:20:30.321Z,101815.59
2023-01-05T11:25:34.132Z,101806.84
2023-01-05T11:30:39.291Z,101811.22
2023-01-05T11:35:45.054Z,101812.09
2023-01-05T11:40:48.005Z,101815.69
2023-01-05T11:45:54.165Z,101806.00
2023-01-05T11:50:58.217Z,101815.56
2023-01-05T11:56:02.273Z,101806.00
2023-01-05T12:01:51.794Z,101800.78
2023-01-05T12:07:09.355Z,101800.69
2023-01-05T12:12:30.088Z,101805.84
2023-01-05T12:17:46.683Z,101799.78
2023-01-05T12:23:03.989Z,101795.34
2023-01-05T12:28:39.496Z,101808.94
2023-01-05T12:34:04.178Z,101796.81
2023-01-05T12:39:31.965Z,101797.81
2023-01-05T12:44:49.527Z,101795.16
2023-01-05T12:49:57.945Z,101803.91
2023-01-05T12:55:07.656Z,101803.94
2023-01-05T13:00:13.003Z,101809.28
2023-01-05T13:05:21.558Z,101812.66
2023-01-05T13:10:29.579Z,101807.25
2023-01-05T13:15:41.760Z,101799.50
2023-01-05T13:20:47.965Z,101802.31
2023-01-05T13:25:53.921Z,101799.81
2023-01-05T13:31:22.520Z,101808.28
2023-01-05T13:36:41.174Z,101801.34
2023-01-05T13:42:16.713Z,101795.97
2023-01-05T13:47:46.071Z,101795.34
2023-01-05T13:53:02.712Z,101791.91
2023-01-05T14:04:02.505Z,101784.22
2023-01-05T14:09:32.849Z,101769.28
2023-01-05T14:15:01.831Z,101755.25
2023-01-05T14:20:05.096Z,101741.53
2023-01-05T14:25:46.596Z,101738.03
2023-01-05T14:30:50.348Z,101729.50
2023-01-05T14:35:53.308Z,101732.84
2023-01-05T14:41:00.507Z,101728.47
2023-01-05T14:46:09.635Z,101725.19
2023-01-05T14:51:21.472Z,101724.28
2023-01-05T14:56:27.712Z,101732.28
2023-01-05T15:06:56.595Z,101724.44
2023-01-05T15:12:19.063Z,101716.50
2023-01-05T15:17:48.307Z,101712.25
2023-01-05T15:23:01.149Z,101708.94
2023-01-05T15:28:25.216Z,101709.03
2023-01-05T15:33:34.415Z,101700.47
2023-01-05T15:38:45.556Z,101673.53
2023-01-05T15:43:50.479Z,101682.22
2023-01-05T15:48:57.691Z,101673.56
2023-01-05T15:54:02.126Z,101656.19
2023-01-05T15:59:24.408Z,101650.16
2023-01-05T16:04:27.622Z,101637.16
2023-01-05T16:09:36.373Z,101631.94
2023-01-05T16:14:44.575Z,101622.34
2023-01-05T16:19:52.277Z,101611.88
2023-01-05T16:24:58.619Z,101612.75
2023-01-05T16:30:17.387Z,101608.41
2023-01-05T16:35:36.166Z,101604.09
2023-01-05T16:41:04.382Z,101619.88
2023-01-05T16:46:28.982Z,101580.78
2023-01-05T16:51:40.512Z,101585.13
2023-01-05T16:56:51.316Z,101588.63
2023-01-05T17:01:57.014Z,101592.03
2023-01-05T17:07:00.934Z,101596.34
2023-01-05T17:12:05.604Z,101600.66
2023-01-05T17:17:12.339Z,101599.75
2023-01-05T17:22:17.719Z,101614.53
2023-01-05T17:27:20.768Z,101623.22
2023-01-05T17:32:24.919Z,101633.63
2023-01-05T17:37:27.757Z,101660.59
2023-01-05T17:42:47.798Z,101682.28
2023-01-05T17:48:17.445Z,101704.00
2023-01-05T17:53:20.275Z,101719.63
2023-01-05T17:58:27.287Z,101731.78
2023-01-05T18:03:31.702Z,101742.19
2023-01-05T18:08:34.607Z,101767.41
2023-01-05T18:13:37.503Z,101764.78
2023-01-05T18:18:41.874Z,101782.19
2023-01-05T18:23:44.707Z,101782.16
2023-01-05T18:28:47.525Z,101802.19
2023-01-05T18:33:51.731Z,101799.56
2023-01-05T18:38:54.668Z,101804.69
2023-01-05T18:43:57.609Z,101803.84
2023-01-05T18:49:01.953Z,101802.09
2023-01-05T18:54:05.547Z,101806.34
2023-01-05T18:59:09.351Z,101802.00
2023-01-05T19:04:15.734Z,101790.69
2023-01-05T19:09:18.589Z,101768.94
2023-01-05T19:14:21.412Z,101767.22
2023-01-05T19:19:25.806Z,101755.03
2023-01-05T19:24:28.670Z,101751.50
2023-01-05T19:29:31.539Z,101727.16
2023-01-05T19:34:39.735Z,101721.00
2023-01-05T19:39:42.612Z,101686.25
2023-01-05T19:44:46.702Z,101673.13
2023-01-05T19:49:53.070Z,101628.69
2023-01-05T19:54:56.076Z,101584.31
2023-01-05T20:00:23.846Z,101552.94
2023-01-05T20:05:28.117Z,101521.59
2023-01-05T20:10:30.973Z,101506.78
2023-01-05T20:15:37.267Z,101475.47
2023-01-05T20:20:42.225Z,101453.69
2023-01-05T20:25:47.904Z,101431.91
2023-01-05T20:30:50.923Z,101427.56
2023-01-05T20:35:55.892Z,101415.41
2023-01-05T20:40:58.953Z,101411.94
2023-01-05T20:46:01.850Z,101406.75
2023-01-05T20:51:08.677Z,101404.97
2023-01-05T20:56:13.637Z,101408.47
2023-01-05T21:01:17.113Z,101404.97
2023-01-05T21:06:21.912Z,101404.97
2023-01-05T21:11:26.055Z,101393.59
2023-01-05T21:16:38.650Z,101391.81
2023-01-05T21:21:42.933Z,101389.19
2023-01-05T21:26:45.979Z,101379.56
2023-01-05T21:31:49.112Z,101379.59
2023-01-05T21:36:53.715Z,101370.91
2023-01-05T21:42:14.143Z,101374.41
2023-01-05T21:47:17.034Z,101380.47
2023-01-05T21:52:38.870Z,101364.81
2023-01-05T21:57:41.999Z,101353.50
2023-01-05T22:02:46.670Z,101349.97
2023-01-05T22:07:50.964Z,101336.09
2023-01-05T22:12:55.029Z,101343.03
2023-01-05T22:17:58.724Z,101352.53
2023-01-05T22:23:03.010Z,101333.38
2023-01-05T22:28:08.731Z,101324.78
2023-01-05T22:33:11.643Z,101316.09
2023-01-05T22:38:15.880Z,101315.25
2023-01-05T22:43:18.764Z,101326.53
2023-01-05T22:48:21.621Z,101317.00
2023-01-05T22:53:25.834Z,101346.59
2023-01-05T22:58:29.241Z,101350.13
2023-01-05T23:03:32.073Z,101337.00
2023-01-05T23:08:36.766Z,101344.84
2023-01-05T23:19:04.203Z,101322.41
2023-01-05T23:24:09.456Z,101331.97
2023-01-05T23:29:12.367Z,101325.00
2023-01-05T23:34:15.239Z,101316.25
2023-01-05T23:39:19.504Z,101320.63
2023-01-05T23:44:22.332Z,101320.66
2023-01-05T23:49:25.121Z,101304.38
2023-01-05T23:54:29.399Z,101299.28
2023-01-05T23:59:32.163Z,101295.03
